Time;durP1;ratioP1;P1;durP2;ratioP2;P2;SDS_P1;SDS_P2;PMS_P1;PMS_P2;Temp;Humidity;BMP_temperature;BMP_pressure;BME280_temperature;BME280_humidity;BME280_pressure;Samples;Min_cycle;Max_cycle;Signal;HPM_P1;HPM_P2
2023/05/05 00:00:22;;;;;;;0.30;0.22;;;20.20;84.20;;;;;;5004386;28;20046;-77
2023/05/05 00:02:47;;;;;;;0.50;0.30;;;20.20;84.10;;;;;;5004428;28;20073;-77
2023/05/05 00:05:13;;;;;;;0.20;0.10;;;20.20;84.20;;;;;;5006878;28;20073;-77
2023/05/05 00:07:39;;;;;;;0.38;0.20;;;20.20;84.20;;;;;;5002236;28;20544;-77
2023/05/05 00:10:04;;;;;;;0.70;0.40;;;20.20;84.20;;;;;;5001222;28;20092;-77
2023/05/05 00:12:30;;;;;;;0.55;0.35;;;20.20;84.20;;;;;;5005471;28;20111;-77
2023/05/05 00:14:56;;;;;;;0.30;0.30;;;20.20;84.20;;;;;;5019576;28;20411;-77
2023/05/05 00:17:21;;;;;;;0.95;0.30;;;20.20;84.20;;;;;;5021546;28;20828;-77
2023/05/05 00:19:47;;;;;;;0.30;0.25;;;20.20;84.20;;;;;;5003273;28;20038;-77
2023/05/05 00:22:13;;;;;;;0.30;0.30;;;20.20;84.20;;;;;;5003260;28;20046;-77
2023/05/05 00:24:38;;;;;;;1.25;0.52;;;20.20;84.30;;;;;;5002827;28;20026;-77
2023/05/05 00:27:04;;;;;;;0.40;0.13;;;20.20;84.30;;;;;;5004944;28;20046;-77
2023/05/05 00:29:30;;;;;;;0.43;0.40;;;20.20;84.30;;;;;;5002984;28;20542;-77
2023/05/05 00:31:56;;;;;;;0.63;0.22;;;20.20;84.30;;;;;;5007328;28;20053;-77
2023/05/05 00:34:21;;;;;;;0.50;0.40;;;20.20;84.40;;;;;;5006321;28;20049;-77
2023/05/05 00:36:47;;;;;;;0.43;0.20;;;20.20;84.40;;;;;;5004313;28;20038;-78
2023/05/05 00:39:13;;;;;;;0.38;0.30;;;20.20;84.50;;;;;;5006012;28;20542;-77
2023/05/05 00:41:39;;;;;;;0.28;0.20;;;20.20;84.50;;;;;;5000963;28;20072;-77
2023/05/05 00:44:05;;;;;;;0.13;0.13;;;20.20;84.50;;;;;;5004463;28;20046;-77
2023/05/05 00:46:30;;;;;;;0.75;0.40;;;20.20;85.40;;;;;;5004055;28;20085;-77
2023/05/05 00:48:56;;;;;;;0.47;0.45;;;20.20;84.60;;;;;;5019048;28;20499;-77
2023/05/05 00:51:21;;;;;;;0.40;0.40;;;20.20;84.70;;;;;;5005594;28;20037;-77
2023/05/05 00:53:47;;;;;;;0.43;0.30;;;20.20;84.90;;;;;;5020255;28;20543;-77
2023/05/05 00:56:14;;;;;;;0.40;0.28;;;20.20;84.80;;;;;;5004302;28;20046;-77
2023/05/05 00:58:40;;;;;;;0.80;0.40;;;20.20;84.80;;;;;;5002305;28;20104;-77
2023/05/05 01:01:06;;;;;;;0.60;0.30;;;20.20;84.80;;;;;;5019966;28;20045;-77
2023/05/05 01:03:32;;;;;;;0.28;0.28;;;20.20;84.70;;;;;;5004216;28;20111;-77
2023/05/05 01:06:38;;;;;;;0.52;0.30;;;20.10;84.60;;;;;;5002999;28;20041;-77
2023/05/05 01:09:16;;;;;;;0.38;0.30;;;20.20;84.80;;;;;;5004448;28;20053;-77
2023/05/05 01:11:50;;;;;;;0.50;0.35;;;20.10;84.90;;;;;;5005742;28;20041;-77
2023/05/05 01:14:17;;;;;;;1.67;0.32;;;20.10;84.90;;;;;;5004276;28;20565;-77
2023/05/05 01:16:58;;;;;;;0.65;0.40;;;20.10;84.80;;;;;;5017619;28;20532;-77
2023/05/05 01:19:29;;;;;;;0.50;0.30;;;20.10;84.70;;;;;;5014503;28;20092;-77
2023/05/05 01:21:59;;;;;;;0.40;0.40;;;20.10;84.80;;;;;;5001956;28;20037;-76
2023/05/05 01:24:31;;;;;;;0.30;0.20;;;20.10;85.00;;;;;;5004751;28;20523;-76
2023/05/05 01:27:05;;;;;;;0.82;0.25;;;20.10;84.90;;;;;;5003540;28;20117;-76
2023/05/05 01:29:46;;;;;;;0.35;0.30;;;20.10;84.80;;;;;;5006597;28;20526;-77
2023/05/05 01:32:13;;;;;;;0.30;0.30;;;20.10;84.90;;;;;;5003331;28;20064;-77
2023/05/05 01:34:54;;;;;;;0.50;0.28;;;20.10;84.90;;;;;;5022921;28;20034;-77
2023/05/05 01:37:25;;;;;;;0.35;0.25;;;20.10;84.90;;;;;;5009942;28;20038;-77
2023/05/05 01:39:54;;;;;;;0.45;0.38;;;20.10;84.90;;;;;;5005503;28;20054;-77
2023/05/05 01:42:20;;;;;;;1.83;0.40;;;20.10;84.80;;;;;;5005539;28;20137;-77
2023/05/05 01:44:45;;;;;;;0.73;0.20;;;20.10;84.90;;;;;;5004495;28;20559;-77
2023/05/05 01:47:12;;;;;;;0.45;0.20;;;20.10;84.70;;;;;;5002675;28;20042;-77
2023/05/05 01:49:37;;;;;;;0.35;0.30;;;20.10;84.80;;;;;;5022790;28;20030;-77
2023/05/05 01:52:04;;;;;;;0.70;0.45;;;20.10;84.80;;;;;;5005273;28;20719;-77
2023/05/05 01:54:31;;;;;;;0.17;0.17;;;20.10;84.80;;;;;;5006449;28;20062;-76
2023/05/05 01:56:56;;;;;;;1.10;0.60;;;20.10;84.80;;;;;;5030732;28;20129;-76
2023/05/05 01:59:22;;;;;;;0.55;0.38;;;20.10;84.70;;;;;;5023812;28;20114;-77
2023/05/05 02:01:48;;;;;;;0.40;0.30;;;20.10;84.90;;;;;;5034628;28;20061;-76
2023/05/05 02:04:13;;;;;;;0.45;0.20;;;20.00;84.80;;;;;;5008238;28;20354;-77
2023/05/05 02:06:39;;;;;;;0.80;0.40;;;20.10;84.80;;;;;;5019686;28;20046;-77
2023/05/05 02:09:05;;;;;;;0.30;0.20;;;20.10;84.70;;;;;;5004520;28;20034;-77
2023/05/05 02:11:31;;;;;;;0.28;0.20;;;20.10;84.70;;;;;;5021406;28;20056;-77
2023/05/05 02:13:56;;;;;;;0.28;0.28;;;20.00;84.80;;;;;;5016811;28;20045;-77
2023/05/05 02:16:22;;;;;;;0.28;0.28;;;20.00;84.70;;;;;;5026922;28;20129;-77
2023/05/05 02:18:47;;;;;;;0.60;0.20;;;20.00;84.70;;;;;;5017586;28;20574;-77
2023/05/05 02:21:16;;;;;;;0.50;0.20;;;20.10;84.70;;;;;;5007631;28;20053;-77
2023/05/05 02:23:42;;;;;;;0.30;0.20;;;20.00;84.70;;;;;;5000184;28;20042;-77
2023/05/05 02:26:09;;;;;;;0.47;0.30;;;20.00;84.70;;;;;;5034546;28;20092;-76
2023/05/05 02:28:45;;;;;;;0.30;0.20;;;20.10;84.80;;;;;;5025178;28;20050;-76
2023/05/05 02:31:11;;;;;;;0.70;0.28;;;20.10;84.70;;;;;;5011106;28;20519;-76
2023/05/05 02:33:36;;;;;;;0.80;0.40;;;20.00;84.70;;;;;;5006424;28;20050;-76
2023/05/05 02:36:07;;;;;;;0.55;0.38;;;20.10;84.70;;;;;;5001124;28;20048;-76
2023/05/05 02:38:33;;;;;;;0.30;0.20;;;20.00;84.70;;;;;;5013252;28;20046;-76
2023/05/05 02:40:58;;;;;;;0.77;0.43;;;20.10;85.40;;;;;;5017932;28;20049;-76
2023/05/05 02:43:24;;;;;;;0.47;0.20;;;20.00;84.60;;;;;;4991217;28;20029;-76
2023/05/05 02:45:49;;;;;;;0.32;0.20;;;20.00;84.60;;;;;;5006686;28;20046;-77
2023/05/05 02:48:15;;;;;;;0.73;0.45;;;20.00;84.70;;;;;;5007336;28;20062;-77
2023/05/05 02:50:40;;;;;;;0.40;0.30;;;20.00;84.80;;;;;;5003811;28;20048;-77
2023/05/05 02:53:06;;;;;;;0.22;0.20;;;20.00;84.80;;;;;;5005592;28;20054;-77
2023/05/05 02:55:56;;;;;;;0.20;0.15;;;20.00;84.80;;;;;;5011088;28;20038;-77
2023/05/05 02:58:40;;;;;;;0.20;0.10;;;20.00;84.80;;;;;;4997339;28;20040;-76
2023/05/05 03:01:18;;;;;;;0.38;0.20;;;20.00;84.90;;;;;;5032827;28;20050;-77
2023/05/05 03:03:51;;;;;;;0.52;0.35;;;20.00;84.80;;;;;;5010179;28;20417;-77
2023/05/05 03:06:17;;;;;;;0.73;0.40;;;20.00;84.90;;;;;;5014236;28;20050;-77
2023/05/05 03:09:03;;;;;;;1.00;0.28;;;20.00;85.00;;;;;;5006063;28;20539;-77
2023/05/05 03:11:42;;;;;;;0.30;0.20;;;20.00;84.90;;;;;;5017069;28;20053;-77
2023/05/05 03:14:10;;;;;;;0.52;0.40;;;20.00;84.90;;;;;;4996895;28;20524;-77
2023/05/05 03:16:36;;;;;;;0.30;0.20;;;20.00;84.90;;;;;;5022162;28;20091;-76
2023/05/05 03:19:02;;;;;;;0.57;0.40;;;20.00;85.00;;;;;;5008154;28;20057;-76
2023/05/05 03:21:28;;;;;;;0.32;0.28;;;20.00;84.90;;;;;;5006130;28;20108;-76
2023/05/05 03:23:54;;;;;;;0.77;0.40;;;20.00;84.90;;;;;;5007244;28;20621;-76
2023/05/05 03:26:19;;;;;;;0.73;0.40;;;20.00;84.90;;;;;;5023190;28;20053;-76
2023/05/05 03:28:45;;;;;;;0.60;0.38;;;20.00;84.80;;;;;;5005423;28;20050;-77
2023/05/05 03:31:11;;;;;;;0.30;0.30;;;20.10;85.00;;;;;;5005789;28;20416;-76
2023/05/05 03:33:36;;;;;;;0.82;0.35;;;20.10;85.00;;;;;;5007496;28;20052;-77
2023/05/05 03:36:02;;;;;;;1.17;0.55;;;20.00;85.00;;;;;;5005706;28;20077;-77
2023/05/05 03:38:27;;;;;;;1.10;0.50;;;20.00;85.00;;;;;;5003469;28;20514;-77
2023/05/05 03:40:53;;;;;;;0.55;0.38;;;20.00;85.00;;;;;;5002833;28;21702;-76
2023/05/05 03:43:18;;;;;;;0.70;0.40;;;20.00;85.00;;;;;;5003315;28;20427;-77
2023/05/05 03:45:44;;;;;;;0.65;0.52;;;20.00;85.00;;;;;;5005978;28;20065;-77
2023/05/05 03:48:10;;;;;;;0.57;0.30;;;20.00;84.90;;;;;;4996862;28;20063;-77
2023/05/05 03:50:35;;;;;;;0.80;0.30;;;20.00;85.00;;;;;;5001852;28;20037;-77
2023/05/05 03:53:01;;;;;;;0.82;0.45;;;20.00;85.70;;;;;;5016415;28;20046;-77
2023/05/05 03:55:26;;;;;;;0.68;0.30;;;20.00;85.00;;;;;;5006077;28;20046;-76
2023/05/05 03:57:52;;;;;;;0.40;0.30;;;20.00;85.00;;;;;;5003275;28;20037;-76
2023/05/05 04:00:18;;;;;;;0.40;0.30;;;20.00;85.00;;;;;;5006810;28;20053;-76
2023/05/05 04:02:43;;;;;;;1.42;0.45;;;20.00;84.90;;;;;;5020905;28;20042;-76
2023/05/05 04:05:09;;;;;;;0.60;0.28;;;20.00;84.90;;;;;;5004304;28;20609;-77
2023/05/05 04:07:34;;;;;;;0.70;0.28;;;20.00;85.70;;;;;;5005215;28;20089;-77
2023/05/05 04:10:00;;;;;;;0.63;0.40;;;20.00;85.60;;;;;;5002486;28;20588;-76
2023/05/05 04:12:26;;;;;;;2.03;0.80;;;20.00;84.90;;;;;;5005120;28;20049;-76
2023/05/05 04:14:51;;;;;;;0.30;0.30;;;20.00;84.90;;;;;;5018421;28;20125;-76
2023/05/05 04:17:17;;;;;;;0.90;0.35;;;20.00;84.90;;;;;;5005970;28;20111;-77
2023/05/05 04:19:42;;;;;;;0.30;0.20;;;20.00;84.90;;;;;;5003800;28;20128;-76
2023/05/05 04:22:08;;;;;;;0.43;0.30;;;20.00;84.90;;;;;;5002300;28;20101;-76
2023/05/05 04:24:34;;;;;;;0.25;0.20;;;20.00;84.90;;;;;;5006539;28;20100;-77
2023/05/05 04:27:00;;;;;;;1.80;0.40;;;20.00;84.90;;;;;;5005712;28;20034;-77
2023/05/05 04:29:25;;;;;;;0.68;0.32;;;20.00;84.90;;;;;;5026576;28;20049;-77
2023/05/05 04:31:52;;;;;;;0.40;0.30;;;20.10;85.00;;;;;;5006407;28;20045;-77
2023/05/05 04:34:18;;;;;;;0.60;0.30;;;20.00;84.90;;;;;;5004012;28;20586;-77
2023/05/05 04:36:43;;;;;;;0.65;0.30;;;20.00;84.90;;;;;;5006250;28;20049;-77
2023/05/05 04:39:09;;;;;;;0.80;0.40;;;20.00;84.90;;;;;;4999756;28;20526;-77
2023/05/05 04:41:34;;;;;;;0.45;0.35;;;20.00;84.90;;;;;;5001747;28;20419;-76
2023/05/05 04:44:00;;;;;;;0.63;0.40;;;20.00;84.80;;;;;;5000454;28;20049;-76
2023/05/05 04:46:26;;;;;;;0.70;0.20;;;20.00;84.90;;;;;;5020661;28;20575;-76
2023/05/05 04:48:51;;;;;;;0.75;0.30;;;20.10;84.90;;;;;;5025824;28;20038;-76
2023/05/05 04:51:17;;;;;;;0.75;0.50;;;20.00;84.80;;;;;;5002446;28;20578;-76
2023/05/05 04:53:42;;;;;;;3.00;0.43;;;20.00;84.80;;;;;;5020782;28;20053;-76
2023/05/05 04:56:08;;;;;;;0.43;0.32;;;20.10;84.90;;;;;;5004889;28;20046;-76
2023/05/05 04:58:33;;;;;;;0.57;0.30;;;20.00;84.80;;;;;;5019029;28;20787;-77
2023/05/05 05:00:59;;;;;;;0.40;0.30;;;20.00;84.80;;;;;;5005520;28;20050;-76
2023/05/05 05:03:24;;;;;;;0.30;0.22;;;20.00;84.90;;;;;;5009065;28;20519;-77
2023/05/05 05:05:50;;;;;;;0.70;0.50;;;20.00;84.80;;;;;;5006303;28;20046;-77
2023/05/05 05:08:16;;;;;;;0.70;0.25;;;20.00;84.80;;;;;;5007952;28;20152;-78
2023/05/05 05:10:42;;;;;;;0.47;0.30;;;20.00;85.50;;;;;;5023473;28;20096;-80
2023/05/05 05:13:08;;;;;;;0.60;0.30;;;20.10;85.60;;;;;;5007913;28;20121;-79
2023/05/05 05:15:36;;;;;;;0.50;0.35;;;20.10;86.30;;;;;;5006054;28;20124;-83
2023/05/05 05:18:01;;;;;;;0.40;0.30;;;20.10;86.80;;;;;;5005939;28;20049;-81
2023/05/05 05:20:29;;;;;;;0.73;0.50;;;20.20;86.50;;;;;;5004692;28;20045;-79
2023/05/05 05:22:56;;;;;;;0.73;0.40;;;20.10;86.90;;;;;;5019650;28;21257;-81
2023/05/05 05:25:21;;;;;;;1.10;0.30;;;20.20;86.90;;;;;;5004258;28;20041;-80
2023/05/05 05:27:47;;;;;;;0.60;0.32;;;20.20;86.80;;;;;;5007199;28;20045;-83
2023/05/05 05:30:13;;;;;;;0.95;0.38;;;20.20;86.80;;;;;;5005243;28;20117;-81
2023/05/05 05:32:38;;;;;;;0.45;0.40;;;20.20;86.80;;;;;;5008640;28;20042;-85
2023/05/05 05:35:04;;;;;;;1.13;0.40;;;20.20;86.70;;;;;;5008955;28;20125;-87
2023/05/05 05:37:30;;;;;;;0.55;0.40;;;20.20;86.60;;;;;;5002088;28;20042;-86
2023/05/05 05:39:56;;;;;;;0.57;0.32;;;20.20;86.50;;;;;;5016544;28;20077;-86
2023/05/05 05:42:21;;;;;;;0.80;0.30;;;20.20;86.40;;;;;;5002809;28;20054;-84
2023/05/05 05:44:47;;;;;;;0.60;0.30;;;20.20;86.50;;;;;;5003258;28;20041;-83
2023/05/05 05:47:13;;;;;;;0.43;0.20;;;20.20;86.70;;;;;;5005034;28;20048;-87
2023/05/05 05:49:38;;;;;;;0.85;0.40;;;20.20;86.50;;;;;;5008672;28;20503;-87
2023/05/05 05:52:04;;;;;;;1.58;0.38;;;20.20;86.60;;;;;;4654823;28;10000230;-88
2023/05/05 05:54:33;;;;;;;1.08;0.35;;;20.20;86.40;;;;;;5024684;28;20242;-85
2023/05/05 05:56:58;;;;;;;3.88;0.40;;;20.20;86.40;;;;;;5002692;28;20034;-84
2023/05/05 05:59:24;;;;;;;0.43;0.30;;;20.10;86.60;;;;;;5007614;28;20056;-85
2023/05/05 06:01:49;;;;;;;2.53;0.50;;;20.10;86.60;;;;;;5007805;28;20042;-85
2023/05/05 06:04:15;;;;;;;0.65;0.22;;;20.20;86.50;;;;;;5007167;28;20050;-85
2023/05/05 06:06:41;;;;;;;0.73;0.45;;;20.20;86.40;;;;;;5005775;28;20399;-85
2023/05/05 06:09:06;;;;;;;1.73;0.40;;;20.10;86.30;;;;;;4655485;28;9999977;-82
2023/05/05 06:11:33;;;;;;;0.98;0.65;;;20.20;86.30;;;;;;4999100;28;20906;-81
2023/05/05 06:13:59;;;;;;;0.85;0.60;;;20.00;86.20;;;;;;5003454;28;20046;-81
2023/05/05 06:16:25;;;;;;;2.55;0.70;;;19.90;85.50;;;;;;5029235;28;20054;-84
2023/05/05 06:18:50;;;;;;;1.45;0.47;;;19.80;86.50;;;;;;5007281;28;20419;-84
2023/05/05 06:21:19;;;;;;;1.20;0.93;;;19.90;86.60;;;;;;5001761;28;20175;-84
2023/05/05 06:23:45;;;;;;;1.40;0.47;;;19.90;86.10;;;;;;5000136;28;20067;-82
2023/05/05 06:26:11;;;;;;;1.25;0.60;;;20.00;85.90;;;;;;4994750;28;20610;-81
2023/05/05 06:28:37;;;;;;;1.13;0.50;;;20.00;85.70;;;;;;5006927;28;20128;-87
2023/05/05 06:31:02;;;;;;;1.50;0.60;;;20.00;86.10;;;;;;5002907;28;20124;-86
2023/05/05 06:33:28;;;;;;;2.00;0.50;;;20.00;86.10;;;;;;5008692;28;20049;-86
2023/05/05 06:35:53;;;;;;;1.00;0.70;;;20.10;86.40;;;;;;5005970;28;20042;-86
2023/05/05 06:38:19;;;;;;;1.52;0.50;;;20.10;87.00;;;;;;5007603;28;20428;-85
2023/05/05 06:40:48;;;;;;;2.22;0.95;;;20.10;86.10;;;;;;5009095;28;20042;-86
2023/05/05 06:43:13;;;;;;;2.05;0.60;;;20.10;86.10;;;;;;5005918;28;20042;-86
2023/05/05 06:45:39;;;;;;;2.42;0.65;;;20.10;86.10;;;;;;5006179;28;20034;-86
2023/05/05 06:48:05;;;;;;;1.30;0.75;;;20.10;86.00;;;;;;5005889;28;20038;-85
2023/05/05 06:50:30;;;;;;;1.45;0.43;;;20.10;86.00;;;;;;5007220;28;20057;-86
2023/05/05 06:52:56;;;;;;;1.23;0.50;;;20.10;86.00;;;;;;5003877;28;20148;-85
2023/05/05 06:55:22;;;;;;;2.17;0.70;;;20.10;86.90;;;;;;5006001;28;20088;-85
2023/05/05 06:57:48;;;;;;;0.93;0.63;;;20.10;86.10;;;;;;5006763;28;20587;-86
2023/05/05 07:00:14;;;;;;;1.00;0.52;;;20.10;86.20;;;;;;5006459;28;20132;-85
2023/05/05 07:02:40;;;;;;;1.83;0.60;;;20.20;86.20;;;;;;5005618;28;20034;-86
2023/05/05 07:05:06;;;;;;;1.85;0.90;;;20.10;86.20;;;;;;5006435;28;20577;-85
2023/05/05 07:07:31;;;;;;;1.00;0.40;;;20.10;86.20;;;;;;5020484;28;20043;-86
2023/05/05 07:09:57;;;;;;;0.55;0.38;;;20.20;86.30;;;;;;5008702;28;20500;-86
2023/05/05 07:12:23;;;;;;;1.58;0.68;;;20.10;86.20;;;;;;5008484;28;20100;-86
2023/05/05 07:14:48;;;;;;;1.10;0.60;;;20.10;86.10;;;;;;5006319;28;20057;-86
2023/05/05 07:17:14;;;;;;;1.38;0.60;;;20.10;86.20;;;;;;5007115;28;20064;-86
2023/05/05 07:19:40;;;;;;;1.20;0.70;;;20.10;86.10;;;;;;5007156;28;20045;-87
2023/05/05 07:22:05;;;;;;;3.17;0.75;;;20.10;86.10;;;;;;5006401;28;20515;-85
2023/05/05 07:24:31;;;;;;;0.80;0.60;;;20.10;86.10;;;;;;5007057;28;20065;-86
2023/05/05 07:26:56;;;;;;;1.42;0.57;;;20.10;86.00;;;;;;5007322;28;20096;-86
2023/05/05 07:29:22;;;;;;;1.98;0.40;;;20.10;86.00;;;;;;5023091;28;20575;-85
2023/05/05 07:31:47;;;;;;;1.65;0.65;;;20.20;85.90;;;;;;5006886;28;20080;-86
2023/05/05 07:34:13;;;;;;;0.95;0.50;;;20.20;85.90;;;;;;5024058;28;20050;-86
2023/05/05 07:36:39;;;;;;;0.77;0.47;;;20.20;85.90;;;;;;5008082;28;20531;-86
2023/05/05 07:39:04;;;;;;;0.82;0.60;;;20.20;85.80;;;;;;5004800;28;20092;-79
2023/05/05 07:41:30;;;;;;;0.90;0.35;;;20.20;85.70;;;;;;5006812;28;20088;-86
2023/05/05 07:43:55;;;;;;;2.63;0.70;;;20.20;85.70;;;;;;5004647;28;20042;-86
2023/05/05 07:46:21;;;;;;;1.60;0.75;;;20.20;85.70;;;;;;5005254;28;20145;-86
2023/05/05 07:48:46;;;;;;;1.38;0.40;;;20.20;85.70;;;;;;5022316;28;20057;-86
2023/05/05 07:51:12;;;;;;;0.50;0.50;;;20.20;85.80;;;;;;5007327;28;20076;-85
2023/05/05 07:53:37;;;;;;;0.93;0.50;;;20.20;85.80;;;;;;5006255;28;20057;-86
2023/05/05 07:56:03;;;;;;;1.00;0.43;;;20.20;85.80;;;;;;5007619;28;20231;-86
2023/05/05 07:58:28;;;;;;;0.52;0.30;;;20.20;85.80;;;;;;5007075;28;20049;-86
2023/05/05 08:00:54;;;;;;;0.55;0.43;;;20.20;85.80;;;;;;5004576;28;20036;-86
2023/05/05 08:03:22;;;;;;;2.22;0.98;;;20.20;85.70;;;;;;5028806;28;20392;-86
2023/05/05 08:05:48;;;;;;;1.65;0.68;;;20.20;85.70;;;;;;5005588;28;20052;-86
2023/05/05 08:08:14;;;;;;;1.73;0.70;;;20.20;85.80;;;;;;5003025;28;20405;-85
2023/05/05 08:10:40;;;;;;;0.82;0.50;;;20.20;85.80;;;;;;5007319;28;20064;-85
2023/05/05 08:13:05;;;;;;;2.30;0.70;;;20.20;85.80;;;;;;5005991;28;20192;-86
2023/05/05 08:15:31;;;;;;;1.52;0.60;;;20.20;85.70;;;;;;5022262;28;20046;-85
2023/05/05 08:17:56;;;;;;;0.40;0.30;;;20.20;85.70;;;;;;5008049;28;20135;-86
2023/05/05 08:20:26;;;;;;;1.05;0.73;;;20.20;85.70;;;;;;5006622;28;20026;-83
2023/05/05 08:22:52;;;;;;;1.00;0.57;;;20.30;85.70;;;;;;5004881;28;20499;-86
2023/05/05 08:25:17;;;;;;;0.77;0.52;;;20.20;85.50;;;;;;5004481;28;20120;-86
2023/05/05 08:27:43;;;;;;;0.80;0.60;;;20.20;85.90;;;;;;5007656;28;20534;-85
2023/05/05 08:30:09;;;;;;;0.77;0.73;;;20.20;86.10;;;;;;5004481;28;20515;-85
2023/05/05 08:32:35;;;;;;;1.17;0.50;;;20.20;86.20;;;;;;5005933;28;20038;-85
2023/05/05 08:35:02;;;;;;;0.80;0.40;;;20.30;85.60;;;;;;5003632;28;20041;-85
2023/05/05 08:37:28;;;;;;;0.70;0.50;;;20.30;85.30;;;;;;5005425;28;20041;-85
2023/05/05 08:39:54;;;;;;;1.52;0.50;;;20.30;86.10;;;;;;5005079;28;20125;-85
2023/05/05 08:42:20;;;;;;;0.93;0.45;;;20.30;85.50;;;;;;5029907;28;20054;-85
2023/05/05 08:44:45;;;;;;;0.90;0.47;;;20.30;85.50;;;;;;5006645;28;20054;-85
2023/05/05 08:47:11;;;;;;;0.47;0.47;;;20.30;85.50;;;;;;5004051;28;20046;-85
2023/05/05 08:49:42;;;;;;;0.88;0.50;;;20.30;85.40;;;;;;5021791;28;20567;-85
2023/05/05 08:52:08;;;;;;;0.80;0.40;;;20.30;86.20;;;;;;5001795;28;20088;-85
2023/05/05 08:54:34;;;;;;;1.00;0.50;;;20.30;85.40;;;;;;5014585;28;20300;-85
2023/05/05 08:57:00;;;;;;;0.63;0.45;;;20.30;85.40;;;;;;5002673;28;20053;-85
2023/05/05 08:59:29;;;;;;;0.68;0.40;;;20.30;85.10;;;;;;5005863;28;20120;-85
2023/05/05 09:01:55;;;;;;;0.90;0.40;;;20.40;85.20;;;;;;5016988;28;20511;-85
2023/05/05 09:04:20;;;;;;;0.30;0.25;;;20.40;85.40;;;;;;4987185;28;20049;-85
2023/05/05 09:06:46;;;;;;;1.10;0.68;;;20.40;85.30;;;;;;5021272;28;20050;-85
2023/05/05 09:09:12;;;;;;;0.93;0.55;;;20.40;85.00;;;;;;5028985;28;20096;-85
2023/05/05 09:11:37;;;;;;;0.80;0.50;;;20.40;84.90;;;;;;5018716;28;20060;-85
2023/05/05 09:14:03;;;;;;;0.57;0.50;;;20.40;84.60;;;;;;5005264;28;20121;-85
2023/05/05 09:16:28;;;;;;;0.60;0.32;;;20.40;84.80;;;;;;5005537;28;20057;-85
2023/05/05 09:19:03;;;;;;;0.40;0.32;;;20.50;84.60;;;;;;5007993;28;20104;-85
2023/05/05 09:21:28;;;;;;;1.45;0.52;;;20.50;84.50;;;;;;5022798;28;20105;-85
2023/05/05 09:24:07;;;;;;;0.70;0.50;;;20.50;84.50;;;;;;5004508;28;20455;-85
2023/05/05 09:26:33;;;;;;;1.15;0.50;;;20.50;84.40;;;;;;5001257;28;20527;-85
2023/05/05 09:29:02;;;;;;;0.90;0.40;;;20.50;84.20;;;;;;5018557;28;20562;-85
2023/05/05 09:31:31;;;;;;;0.90;0.43;;;20.60;84.20;;;;;;4995343;28;20042;-85
2023/05/05 09:33:59;;;;;;;0.40;0.40;;;20.60;84.10;;;;;;5008409;28;20053;-85
2023/05/05 09:36:47;;;;;;;0.80;0.50;;;20.60;84.00;;;;;;5002525;28;20044;-85
2023/05/05 09:39:16;;;;;;;0.70;0.45;;;20.70;83.90;;;;;;5005517;28;20049;-84
2023/05/05 09:41:43;;;;;;;0.85;0.68;;;20.70;83.80;;;;;;5003539;28;20050;-84
2023/05/05 09:44:08;;;;;;;0.52;0.40;;;20.70;83.80;;;;;;5018373;28;20077;-85
2023/05/05 09:46:34;;;;;;;0.57;0.47;;;20.70;84.60;;;;;;5004055;28;20065;-85
2023/05/05 09:49:22;;;;;;;0.93;0.70;;;20.70;83.80;;;;;;4991613;28;20535;-86
2023/05/05 09:51:47;;;;;;;0.68;0.40;;;20.70;83.80;;;;;;4995571;28;20050;-84
2023/05/05 09:54:28;;;;;;;0.75;0.50;;;20.70;83.70;;;;;;4996603;28;20061;-82
2023/05/05 09:56:55;;;;;;;1.42;0.40;;;20.80;83.50;;;;;;5012521;28;20050;-84
2023/05/05 09:59:21;;;;;;;0.85;0.80;;;20.80;83.20;;;;;;4995975;28;20093;-84
2023/05/05 10:01:47;;;;;;;1.25;0.77;;;20.80;82.80;;;;;;4995726;28;20065;-82
2023/05/05 10:04:23;;;;;;;0.70;0.55;;;20.80;82.90;;;;;;4996903;28;20116;-80
2023/05/05 10:06:49;;;;;;;0.85;0.60;;;20.70;82.90;;;;;;4982120;28;20054;-83
2023/05/05 10:09:15;;;;;;;4.05;1.08;;;20.80;82.80;;;;;;5013641;28;20046;-85
2023/05/05 10:11:41;;;;;;;3.78;1.15;;;20.70;82.80;;;;;;5011833;28;20056;-83
2023/05/05 10:14:06;;;;;;;2.63;1.30;;;20.70;82.60;;;;;;5012184;28;20058;-82
2023/05/05 10:16:32;;;;;;;3.75;1.92;;;20.80;82.80;;;;;;4996881;28;20091;-78
2023/05/05 10:19:00;;;;;;;2.92;1.65;;;20.80;83.20;;;;;;5012206;28;20049;-79
2023/05/05 10:21:26;;;;;;;3.45;1.42;;;20.90;83.70;;;;;;5012621;28;20148;-82
2023/05/05 10:23:57;;;;;;;1.88;1.20;;;20.90;83.60;;;;;;5013952;28;20054;-84
2023/05/05 10:26:23;;;;;;;3.83;1.52;;;21.00;83.40;;;;;;5013499;28;20711;-82
2023/05/05 10:28:55;;;;;;;4.22;1.42;;;21.00;82.90;;;;;;5004473;28;20503;-85
2023/05/05 10:31:45;;;;;;;3.13;1.52;;;21.00;82.70;;;;;;5015002;28;20037;-81
2023/05/05 10:34:23;;;;;;;2.72;1.10;;;21.00;82.20;;;;;;5001028;28;20145;-84
2023/05/05 10:36:49;;;;;;;3.08;1.00;;;20.90;82.40;;;;;;5017507;28;20046;-83
2023/05/05 10:39:15;;;;;;;1.67;0.77;;;20.90;82.30;;;;;;5007033;28;20038;-82
2023/05/05 10:41:40;;;;;;;3.47;1.38;;;20.90;82.40;;;;;;4984234;28;20046;-82
2023/05/05 10:44:06;;;;;;;3.17;1.10;;;20.90;82.30;;;;;;4983374;28;20066;-84
2023/05/05 10:46:31;;;;;;;2.75;1.20;;;20.90;81.90;;;;;;4991120;28;20054;-85
2023/05/05 10:49:24;;;;;;;3.00;0.80;;;20.90;81.70;;;;;;4989292;28;20033;-83
2023/05/05 10:52:09;;;;;;;2.50;1.40;;;20.90;81.60;;;;;;4996801;28;20534;-83
2023/05/05 10:54:41;;;;;;;;;;;20.90;81.60;;;;;;5021289;28;20714;-84
2023/05/05 10:57:08;;;;;;;2.53;0.90;;;20.90;81.50;;;;;;4982639;28;20418;-83
2023/05/05 10:59:36;;;;;;;2.25;1.30;;;20.90;81.20;;;;;;4978191;28;20062;-86
2023/05/05 11:02:27;;;;;;;2.08;0.98;;;20.90;81.20;;;;;;4984828;28;20042;-84
2023/05/05 11:05:20;;;;;;;2.90;1.08;;;20.90;81.40;;;;;;4984891;28;20132;-85
2023/05/05 11:07:46;;;;;;;3.13;1.00;;;20.80;80.50;;;;;;4987047;28;20042;-85
2023/05/05 11:10:13;;;;;;;3.15;1.13;;;20.80;81.00;;;;;;4982903;28;20072;-85
2023/05/05 11:12:50;;;;;;;3.15;1.00;;;20.70;81.10;;;;;;4990957;28;20105;-85
2023/05/05 11:15:25;;;;;;;2.83;1.20;;;20.70;80.70;;;;;;4983947;28;20542;-84
2023/05/05 11:17:51;;;;;;;3.53;1.15;;;20.70;81.30;;;;;;4999301;28;20046;-84
2023/05/05 11:20:17;;;;;;;2.72;1.15;;;20.70;81.50;;;;;;5005633;28;20924;-85
2023/05/05 11:23:01;;;;;;;2.92;1.40;;;20.70;81.50;;;;;;4983113;28;20091;-85
2023/05/05 11:25:37;;;;;;;1.25;0.70;;;20.70;81.80;;;;;;4979181;28;20443;-84
2023/05/05 11:28:09;;;;;;;1.88;1.17;;;20.80;82.00;;;;;;4985707;28;20049;-85
2023/05/05 11:30:55;;;;;;;1.30;0.82;;;20.80;82.10;;;;;;4984709;28;20089;-85
2023/05/05 11:33:27;;;;;;;1.33;0.63;;;20.80;82.00;;;;;;4984024;28;20521;-85
2023/05/05 11:35:56;;;;;;;2.80;0.90;;;20.80;82.10;;;;;;4989318;28;20684;-85
2023/05/05 11:38:41;;;;;;;1.38;0.60;;;20.80;82.10;;;;;;5006415;28;20038;-86
2023/05/05 11:41:11;;;;;;;2.85;1.10;;;20.80;82.10;;;;;;5030508;28;20100;-86
2023/05/05 11:43:37;;;;;;;1.77;0.90;;;20.80;82.80;;;;;;5006245;28;20061;-86
2023/05/05 11:46:12;;;;;;;1.20;0.57;;;20.90;83.30;;;;;;4990687;28;20200;-90
2023/05/05 11:48:48;;;;;;;2.95;0.88;;;20.90;83.70;;;;;;4992095;28;20037;-86
2023/05/05 11:51:15;;;;;;;1.92;0.85;;;20.90;81.80;;;;;;5028970;28;20042;-86
2023/05/05 11:53:47;;;;;;;1.70;1.02;;;20.80;81.60;;;;;;5004568;28;20073;-83
2023/05/05 11:56:17;;;;;;;1.73;0.73;;;20.80;81.20;;;;;;4656112;28;10000565;-88
2023/05/05 11:58:44;;;;;;;1.73;0.73;;;20.80;79.40;;;;;;5004642;28;20129;-83
2023/05/05 12:01:10;;;;;;;0.95;0.68;;;20.80;80.50;;;;;;5000864;28;20038;-82
2023/05/05 12:03:36;;;;;;;1.90;0.75;;;20.70;81.00;;;;;;5002819;28;20045;-83
2023/05/05 12:06:02;;;;;;;1.60;0.85;;;20.80;80.90;;;;;;4986536;28;20105;-82
2023/05/05 12:08:33;;;;;;;1.52;0.93;;;20.80;81.00;;;;;;4998054;28;20096;-83
2023/05/05 12:11:02;;;;;;;0.93;0.60;;;20.80;81.30;;;;;;5004485;28;20076;-85
2023/05/05 12:13:28;;;;;;;1.73;0.60;;;20.70;81.70;;;;;;5016340;28;20050;-79
2023/05/05 12:15:54;;;;;;;0.75;0.50;;;20.70;81.90;;;;;;5004380;28;20053;-79
2023/05/05 12:18:20;;;;;;;1.65;0.85;;;20.70;81.60;;;;;;5014498;28;20045;-79
2023/05/05 12:20:45;;;;;;;3.63;1.00;;;20.70;81.50;;;;;;4997918;28;20040;-79
2023/05/05 12:23:11;;;;;;;1.58;1.00;;;20.80;81.60;;;;;;5016101;28;20049;-79
2023/05/05 12:25:38;;;;;;;2.08;0.70;;;20.80;81.70;;;;;;5006467;28;20046;-79
2023/05/05 12:28:05;;;;;;;2.60;0.98;;;20.80;81.60;;;;;;5002266;28;20045;-79
2023/05/05 12:30:31;;;;;;;1.20;0.65;;;20.80;81.60;;;;;;5020541;28;20494;-79
2023/05/05 12:33:04;;;;;;;2.85;1.17;;;20.80;81.00;;;;;;5001898;28;20123;-80
2023/05/05 12:35:30;;;;;;;1.83;0.93;;;20.80;81.50;;;;;;4999959;28;20050;-79
2023/05/05 12:37:55;;;;;;;2.55;0.98;;;20.80;81.30;;;;;;5014117;28;20105;-79
2023/05/05 12:40:43;;;;;;;3.05;1.15;;;20.80;81.50;;;;;;5000661;28;20527;-79
2023/05/05 12:43:09;;;;;;;1.92;0.88;;;20.80;81.00;;;;;;5001329;28;20069;-78
2023/05/05 12:45:35;;;;;;;1.77;0.88;;;20.80;82.70;;;;;;4997635;28;20117;-79
2023/05/05 12:48:00;;;;;;;2.45;1.20;;;20.80;81.60;;;;;;4998305;28;20133;-79
2023/05/05 12:50:32;;;;;;;2.40;1.20;;;20.80;81.30;;;;;;5001087;28;20046;-78